This is the latest recevied weather packets stored in our database for station/object KE8AFF-13. If no packets are shown the sender has not sent any weather packets the latest 1 day(s).
| Time | Temp. | Humidity | Pressure | Rain* | Wind** | Luminosity | Snow |
|---|---|---|---|---|---|---|---|
| 1778097068 | 12.22° C | 56% | 1012.3 hPa | 0 mm | - | 151 W/m² | - |
| 1778096159 | 12.22° C | 54% | 1012.3 hPa | 0 mm | - | 174 W/m² | - |
| 1778094946 | 12.78° C | 54% | 1012.3 hPa | 0 mm | - | 138 W/m² | - |
| 1778094642 | 12.78° C | 53% | 1012.3 hPa | 0 mm | - | 207 W/m² | - |
| 1778093127 | 12.78° C | 58% | 1012.1 hPa | 0 mm | - | 229 W/m² | - |
| 1778092514 | 12.78° C | 56% | 1012.1 hPa | 0 mm | - | 144 W/m² | - |
| 1778091000 | 12.78° C | 57% | 1012.5 hPa | 0 mm | - | 166 W/m² | - |
| 1778090090 | 12.78° C | 58% | 1012 hPa | 0 mm | - | 308 W/m² | - |
| 1778089181 | 12.78° C | 58% | 1012.2 hPa | 0 mm | - | 896 W/m² | - |
| 1778088575 | 13.89° C | 56% | 1012.5 hPa | 0 mm | - | 441 W/m² | - |
| 1778087666 | 12.78° C | 56% | 1012.4 hPa | 0 mm | - | 801 W/m² | - |
| 1778085542 | 12.22° C | 64% | 1012.1 hPa | 0 mm | - | 661 W/m² | - |
| 1778084931 | 12.22° C | 62% | 1012 hPa | 0 mm | - | 858 W/m² | - |
| 1778084327 | 12.78° C | 64% | 1012.5 hPa | 0 mm | - | 1078 W/m² | - |
| 1778083412 | 12.78° C | 68% | 1012.6 hPa | 0 mm | - | 422 W/m² | - |
| 1778081377 | 11.11° C | 72% | 1011.8 hPa | 0 mm | - | 777 W/m² | - |
| 1778080167 | 10.56° C | 73% | 1012 hPa | 0 mm | - | 766 W/m² | - |
| 1778079560 | 11.11° C | 73% | 1011.9 hPa | 0 mm | - | 773 W/m² | - |
| 1778079256 | 10.56° C | 75% | 1011.7 hPa | 0 mm | - | 779 W/m² | - |
| 1778077441 | 10° C | 78% | 1011.7 hPa | 0 mm | - | 690 W/m² | - |
| 1778076836 | 9.44° C | 78% | 1011.4 hPa | 0 mm | - | 645 W/m² | - |
| 1778076231 | 9.44° C | 79% | 1011.3 hPa | 0 mm | - | 562 W/m² | - |
| 1778075625 | 8.89° C | 81% | 1011.2 hPa | 0 mm | - | 363 W/m² | - |
| 1778074412 | 8.33° C | 85% | 1011.6 hPa | 0 mm | - | 186 W/m² | - |
| 1778074108 | 7.78° C | 86% | 1011.6 hPa | 0 mm | - | 161 W/m² | - |
* Rain latest hour (hover to see other rain measurements)
** Current wind speed in m/s (hover to see current wind gust speed)